Forside
METAR-TAF:

METAR-TAF

Lufthavne :

Antananarivo, Madagaskar

Breddekreds: 18-48S, længdekreds: 047-29E, højde: 1279 m

Aktuelle vejr

Denne rapport blev lavet for 38 minutter siden, kl. 17:30 UTC
Vind 6 kt fra sydsydøst, varierende mellem østsydøst og syd
Temperatur 14°C
Fugtighed 72%
Tryk 1030 hPa
Sigt 10 km eller mere
Nogle få skyer i en højde af 2000 ft

METAR: FMMI 141730Z 15006KT 110V190 9999 FEW020 14/09 Q1030 NOSIG

Tid: 21:08 (18:08 UTC)

Vejrudsigter

Denne rapport blev lavet for 1 time og 8 minutter siden, kl. 17:00 UTC
Foreløbig gælder fra 14 på 18 UTC til 15 på 24 UTC
Vind 10 kt fra østsydøst
Sigt 10 km eller mere
Nogle få skyer i en højde af 2000 ft
Spredte skyer i en højde af 2300 ft
Midlertidig
fra 15 på 07 UTC til 15 på 15 UTC
Vind 15 kt fra sydøst med vindstød på up til 25 kt

TAF: FMMI 141700Z 1418/1524 12010KT 9999 FEW020 SCT023 TEMPO 1507/1515 14015G25KT

Vejrobservationer og prognoser fra mere end 4000 lufthavne (METAR og TAF).

De gule og røde prikker repræsenterer de meteorologiske stationer.

Flyt musen over at se navnet på stationen.

Så klik over at se vejr observationer og prognoser.

At skifte det kort: Klik på de grønne knapper med et sort kors for at zoome ind; på den grønne knap med en bindestreg for at zoome ud; eller på de grønne pile for tilstødende kort.


METAR-TAF: